createdAt,value
2018-12-06T00:00:29.384Z,100623.23
2018-12-06T00:03:13.071Z,100620.27
2018-12-06T00:05:55.286Z,100615.84
2018-12-06T00:08:37.448Z,100612.76
2018-12-06T00:11:19.390Z,100606.86
2018-12-06T00:14:01.852Z,100610.91
2018-12-06T00:16:54.455Z,100608.05
2018-12-06T00:19:36.861Z,100606.64
2018-12-06T00:22:19.037Z,100600.17
2018-12-06T00:25:00.908Z,100586.78
2018-12-06T00:27:42.778Z,100585.15
2018-12-06T00:30:36.405Z,100590.07
2018-12-06T00:33:18.509Z,100577.67
2018-12-06T00:36:01.332Z,100579.83
2018-12-06T00:38:44.042Z,100593.31
2018-12-06T00:41:26.326Z,100580.89
2018-12-06T00:44:08.237Z,100579.31
2018-12-06T00:46:50.760Z,100583.87
2018-12-06T00:49:32.563Z,100584.36
2018-12-06T00:52:14.881Z,100578.95
2018-12-06T00:54:56.832Z,100576.66
2018-12-06T00:57:38.752Z,100576.86
2018-12-06T01:00:21.624Z,100577.51
2018-12-06T01:03:03.576Z,100577.34
2018-12-06T01:05:45.852Z,100575.52
2018-12-06T01:08:28.076Z,100574.88
2018-12-06T01:11:10.425Z,100573.07
2018-12-06T01:13:52.452Z,100582.89
2018-12-06T01:16:35.882Z,100580.41
2018-12-06T01:19:18.021Z,100588.00
2018-12-06T01:22:01.100Z,100589.29
2018-12-06T01:24:43.333Z,100591.58
2018-12-06T01:27:25.860Z,100596.45
2018-12-06T01:30:08.773Z,100600.07
2018-12-06T01:32:51.287Z,100601.63
2018-12-06T01:35:33.327Z,100607.30
2018-12-06T01:38:15.230Z,100606.59
2018-12-06T01:40:57.699Z,100613.72
2018-12-06T01:43:39.736Z,100613.66
2018-12-06T01:46:21.499Z,100614.22
2018-12-06T01:49:04.174Z,100606.37
2018-12-06T01:51:46.390Z,100606.69
2018-12-06T01:54:28.772Z,100616.60
2018-12-06T01:57:11.874Z,100605.73
2018-12-06T01:59:53.844Z,100603.37
2018-12-06T02:02:36.667Z,100607.08
2018-12-06T02:05:18.486Z,100614.36
2018-12-06T02:08:00.757Z,100608.55
2018-12-06T02:10:43.055Z,100595.87
2018-12-06T02:13:25.706Z,100596.25
2018-12-06T02:16:08.318Z,100592.98
2018-12-06T02:18:50.830Z,100589.78
2018-12-06T02:21:33.162Z,100575.95
2018-12-06T02:24:14.962Z,100572.65
2018-12-06T02:26:57.182Z,100575.23
2018-12-06T02:29:45.071Z,100584.19
2018-12-06T02:32:27.481Z,100570.14
2018-12-06T02:35:11.527Z,100570.91
2018-12-06T02:37:54.877Z,100565.27
2018-12-06T02:40:37.151Z,100565.50
2018-12-06T02:43:19.294Z,100568.84
2018-12-06T02:46:01.642Z,100560.13
2018-12-06T02:48:43.486Z,100551.69
2018-12-06T02:51:26.089Z,100532.88
2018-12-06T02:54:08.227Z,100538.78
2018-12-06T03:03:50.326Z,100511.75
2018-12-06T03:06:33.187Z,100499.29
2018-12-06T03:09:15.365Z,100484.70
2018-12-06T03:11:57.457Z,100480.97
2018-12-06T03:14:40.712Z,100481.28
2018-12-06T03:17:24.581Z,100480.31
2018-12-06T03:20:08.089Z,100483.41
2018-12-06T03:22:50.350Z,100490.08
2018-12-06T03:25:32.816Z,100491.09
2018-12-06T03:28:14.829Z,100485.48
2018-12-06T03:30:56.542Z,100483.36
2018-12-06T03:33:38.872Z,100479.52
2018-12-06T03:36:21.018Z,100471.20
2018-12-06T03:39:04.751Z,100465.08
2018-12-06T03:41:48.388Z,100464.71
2018-12-06T03:44:32.207Z,100461.11
2018-12-06T03:47:14.090Z,100455.15
2018-12-06T03:49:55.932Z,100452.58
2018-12-06T03:52:37.813Z,100441.23
2018-12-06T03:55:19.999Z,100426.48
2018-12-06T03:58:01.926Z,100402.48
2018-12-06T04:00:44.445Z,100413.11
2018-12-06T04:03:27.792Z,100401.49
2018-12-06T04:06:10.070Z,100400.31
2018-12-06T04:08:51.767Z,100399.91
2018-12-06T04:11:33.717Z,100407.18
2018-12-06T04:14:15.816Z,100402.80
2018-12-06T04:16:58.311Z,100394.48
2018-12-06T04:19:40.161Z,100390.67
2018-12-06T04:22:21.994Z,100384.13
2018-12-06T04:25:03.906Z,100367.42
2018-12-06T04:27:46.644Z,100373.41
2018-12-06T04:30:28.357Z,100366.52
2018-12-06T04:33:10.366Z,100362.92
2018-12-06T04:35:52.383Z,100361.45
2018-12-06T04:38:34.349Z,100369.15
2018-12-06T04:41:17.172Z,100363.62
2018-12-06T04:43:59.382Z,100359.22
2018-12-06T04:46:41.572Z,100352.74
2018-12-06T04:49:25.214Z,100353.11
2018-12-06T04:52:07.523Z,100350.53
2018-12-06T04:54:49.273Z,100353.31
2018-12-06T04:57:31.530Z,100353.14
2018-12-06T05:00:14.236Z,100349.39
2018-12-06T05:02:55.987Z,100347.23
2018-12-06T05:05:38.865Z,100341.52
2018-12-06T05:08:20.918Z,100342.23
2018-12-06T05:11:03.044Z,100333.54
2018-12-06T05:13:45.245Z,100333.12
2018-12-06T05:16:27.538Z,100332.91
2018-12-06T05:19:10.315Z,100325.39
2018-12-06T05:21:53.378Z,100320.61
2018-12-06T05:24:35.991Z,100305.70
2018-12-06T05:27:18.599Z,100299.31
2018-12-06T05:30:00.922Z,100294.50
2018-12-06T05:32:49.232Z,100302.60
2018-12-06T05:35:31.636Z,100302.98
2018-12-06T05:38:13.971Z,100290.25
2018-12-06T05:40:56.040Z,100289.64
2018-12-06T05:43:38.699Z,100298.46
2018-12-06T05:46:21.397Z,100311.03
2018-12-06T05:49:04.918Z,100313.16
2018-12-06T05:51:47.559Z,100308.73
2018-12-06T05:54:29.491Z,100306.45
2018-12-06T05:57:12.135Z,100311.16
2018-12-06T05:59:54.046Z,100306.33
2018-12-06T06:02:36.499Z,100299.92
2018-12-06T06:05:18.849Z,100294.92
2018-12-06T06:08:00.716Z,100309.61
2018-12-06T06:10:42.617Z,100309.11
2018-12-06T06:13:25.632Z,100323.09
2018-12-06T06:16:08.067Z,100316.16
2018-12-06T06:18:50.441Z,100322.33
2018-12-06T06:21:32.639Z,100322.47
2018-12-06T06:24:14.608Z,100321.70
2018-12-06T06:26:57.037Z,100322.40
2018-12-06T06:29:44.010Z,100315.22
2018-12-06T06:32:26.016Z,100316.83
2018-12-06T06:35:08.210Z,100300.04
2018-12-06T06:37:51.130Z,100305.35
2018-12-06T06:40:33.745Z,100316.59
2018-12-06T06:43:15.739Z,100316.06
2018-12-06T06:45:57.950Z,100307.70
2018-12-06T06:48:40.208Z,100312.86
2018-12-06T06:51:22.373Z,100315.38
2018-12-06T06:54:05.140Z,100323.23
2018-12-06T06:56:47.034Z,100309.81
2018-12-06T06:59:29.002Z,100306.61
2018-12-06T07:02:11.298Z,100308.50
2018-12-06T07:04:53.752Z,100308.98
2018-12-06T07:07:36.068Z,100309.37
2018-12-06T07:10:18.434Z,100309.20
2018-12-06T07:13:01.268Z,100317.87
2018-12-06T07:15:43.525Z,100328.59
2018-12-06T07:18:25.590Z,100327.76
2018-12-06T07:21:07.749Z,100334.64
2018-12-06T07:23:49.929Z,100330.07
2018-12-06T07:26:32.004Z,100336.28
2018-12-06T07:29:14.561Z,100338.47
2018-12-06T07:31:57.724Z,100340.80
2018-12-06T07:34:39.938Z,100340.60
2018-12-06T07:37:22.091Z,100326.95
2018-12-06T07:40:05.624Z,100331.40
2018-12-06T07:42:47.712Z,100335.60
2018-12-06T07:45:30.544Z,100347.05
2018-12-06T07:48:12.691Z,100346.92
2018-12-06T07:50:54.585Z,100351.05
2018-12-06T07:53:36.838Z,100351.34
2018-12-06T07:56:19.450Z,100362.39
2018-12-06T07:59:01.707Z,100365.92
2018-12-06T08:01:43.929Z,100372.64
2018-12-06T08:04:26.644Z,100373.22
2018-12-06T08:07:09.189Z,100371.66
2018-12-06T08:09:51.800Z,100368.95
2018-12-06T08:12:34.148Z,100378.73
2018-12-06T08:15:16.804Z,100380.94
2018-12-06T08:17:59.067Z,100380.34
2018-12-06T08:20:41.325Z,100381.53
2018-12-06T08:23:23.224Z,100384.24
2018-12-06T08:26:05.892Z,100375.36
2018-12-06T08:28:49.537Z,100364.73
2018-12-06T08:31:31.686Z,100356.13
2018-12-06T08:34:14.124Z,100353.97
2018-12-06T08:36:56.033Z,100347.34
2018-12-06T08:39:38.393Z,100348.27
2018-12-06T08:42:20.931Z,100355.98
2018-12-06T08:45:03.946Z,100352.45
2018-12-06T08:47:46.234Z,100350.27
2018-12-06T08:50:28.496Z,100362.06
2018-12-06T08:53:10.410Z,100366.30
2018-12-06T08:55:52.641Z,100358.65
2018-12-06T08:58:34.477Z,100358.25
2018-12-06T09:01:16.597Z,100357.56
2018-12-06T09:03:58.430Z,100372.78
2018-12-06T09:06:40.942Z,100371.70
2018-12-06T09:09:23.224Z,100371.55
2018-12-06T09:12:05.921Z,100374.05
2018-12-06T09:14:48.167Z,100376.48
2018-12-06T09:17:30.995Z,100376.78
2018-12-06T09:20:13.424Z,100372.86
2018-12-06T09:22:55.604Z,100381.48
2018-12-06T09:25:37.719Z,100375.74
2018-12-06T09:28:20.830Z,100373.03
2018-12-06T09:31:03.767Z,100363.09
2018-12-06T09:34:06.633Z,100360.72
2018-12-06T09:36:49.297Z,100361.51
2018-12-06T09:39:31.681Z,100364.90
2018-12-06T09:42:14.473Z,100367.16
2018-12-06T09:44:56.799Z,100369.72
2018-12-06T09:47:39.163Z,100368.16
2018-12-06T09:50:21.125Z,100369.48
2018-12-06T09:53:03.382Z,100366.44
2018-12-06T09:55:45.063Z,100364.72
2018-12-06T09:58:27.751Z,100367.09
2018-12-06T10:01:09.980Z,100355.25
2018-12-06T10:03:52.454Z,100355.96
2018-12-06T10:06:34.680Z,100362.00
2018-12-06T10:09:17.035Z,100365.88
2018-12-06T10:11:59.468Z,100365.02
2018-12-06T10:14:41.812Z,100347.28
2018-12-06T10:17:26.685Z,100351.56
2018-12-06T10:20:11.851Z,100345.14
2018-12-06T10:22:54.049Z,100340.59
2018-12-06T10:25:36.044Z,100342.50
2018-12-06T10:28:18.635Z,100334.06
2018-12-06T10:31:00.897Z,100338.05
2018-12-06T10:33:44.161Z,100333.91
2018-12-06T10:36:26.642Z,100325.14
2018-12-06T10:39:09.580Z,100329.43
2018-12-06T10:41:52.846Z,100323.36
2018-12-06T10:44:35.471Z,100325.83
2018-12-06T10:47:17.987Z,100325.44
2018-12-06T10:50:00.300Z,100327.07
2018-12-06T10:52:42.786Z,100326.65
2018-12-06T10:55:25.261Z,100329.44
2018-12-06T10:58:08.432Z,100321.71
2018-12-06T11:00:57.417Z,100324.33
2018-12-06T11:03:45.628Z,100327.23
2018-12-06T11:06:28.493Z,100323.97
2018-12-06T11:09:11.003Z,100325.36
2018-12-06T11:11:53.488Z,100320.59
2018-12-06T11:14:35.776Z,100322.92
2018-12-06T11:17:17.987Z,100319.64
2018-12-06T11:20:00.192Z,100316.96
2018-12-06T11:22:42.088Z,100320.82
2018-12-06T11:25:24.787Z,100316.30
2018-12-06T11:28:06.972Z,100323.64
2018-12-06T11:30:49.316Z,100313.02
2018-12-06T11:33:31.480Z,100314.33
2018-12-06T11:36:13.886Z,100314.18
2018-12-06T11:38:56.254Z,100308.55
2018-12-06T11:41:42.919Z,100305.48
2018-12-06T11:44:23.425Z,100306.02
2018-12-06T11:47:05.464Z,100298.39
2018-12-06T11:49:47.960Z,100293.02
2018-12-06T11:52:30.235Z,100292.97
2018-12-06T11:55:12.498Z,100295.02
2018-12-06T11:57:55.213Z,100287.59
2018-12-06T12:00:38.096Z,100284.92
2018-12-06T12:03:20.503Z,100293.08
2018-12-06T12:06:03.848Z,100294.98
2018-12-06T12:08:47.817Z,100290.08
2018-12-06T12:11:29.953Z,100289.45
2018-12-06T12:14:12.342Z,100280.27
2018-12-06T12:16:54.961Z,100280.61
2018-12-06T12:19:36.850Z,100273.27
2018-12-06T12:22:19.054Z,100262.72
2018-12-06T12:25:01.211Z,100254.38
2018-12-06T12:27:44.028Z,100267.09
2018-12-06T12:30:26.369Z,100274.84
2018-12-06T12:33:08.892Z,100272.50
2018-12-06T12:35:50.811Z,100263.08
2018-12-06T12:38:33.483Z,100260.33
2018-12-06T12:41:15.611Z,100262.91
2018-12-06T12:43:57.982Z,100275.08
2018-12-06T12:46:40.346Z,100265.58
2018-12-06T12:49:22.958Z,100256.02
2018-12-06T12:52:06.140Z,100255.55
2018-12-06T12:54:48.108Z,100244.51
2018-12-06T12:57:30.019Z,100248.93
2018-12-06T13:00:12.827Z,100240.00
2018-12-06T13:02:55.181Z,100248.44
2018-12-06T13:05:37.538Z,100240.54
2018-12-06T13:08:20.255Z,100236.53
2018-12-06T13:11:02.059Z,100243.23
2018-12-06T13:13:43.864Z,100237.27
2018-12-06T13:16:29.972Z,100233.67
2018-12-06T13:19:12.490Z,100231.49
2018-12-06T13:21:55.343Z,100232.43
2018-12-06T13:24:38.227Z,100225.52
2018-12-06T13:27:20.830Z,100225.88
2018-12-06T13:30:04.421Z,100234.66
2018-12-06T13:32:47.232Z,100234.11
2018-12-06T13:35:29.030Z,100244.39
2018-12-06T13:38:11.332Z,100243.77
2018-12-06T13:40:53.952Z,100247.61
2018-12-06T13:43:36.250Z,100247.42
2018-12-06T13:46:18.052Z,100255.78
2018-12-06T13:49:00.349Z,100257.91
2018-12-06T13:51:42.594Z,100260.40
2018-12-06T13:54:27.088Z,100264.09
2018-12-06T13:57:10.449Z,100276.06
2018-12-06T13:59:52.690Z,100281.13
2018-12-06T14:02:35.035Z,100279.40
2018-12-06T14:05:17.452Z,100278.98
2018-12-06T14:07:59.913Z,100278.39
2018-12-06T14:10:42.055Z,100280.20
2018-12-06T14:13:24.311Z,100281.84
2018-12-06T14:16:10.308Z,100288.07
2018-12-06T14:18:50.825Z,100283.94
2018-12-06T14:21:33.170Z,100284.72
2018-12-06T14:24:15.635Z,100285.00
2018-12-06T14:26:58.162Z,100283.32
2018-12-06T14:29:44.364Z,100283.95
2018-12-06T14:32:29.103Z,100298.35
2018-12-06T14:35:12.507Z,100319.14
2018-12-06T14:37:54.632Z,100318.08
2018-12-06T14:40:39.045Z,100321.84
2018-12-06T14:43:21.683Z,100322.72
2018-12-06T14:46:04.402Z,100323.33
2018-12-06T14:48:46.313Z,100311.72
2018-12-06T14:51:28.329Z,100301.41
2018-12-06T14:54:10.519Z,100306.50
2018-12-06T14:56:52.898Z,100300.16
2018-12-06T14:59:34.712Z,100295.48
2018-12-06T15:02:17.279Z,100303.28
2018-12-06T15:05:00.031Z,100305.53
2018-12-06T15:07:42.517Z,100299.19
2018-12-06T15:10:25.026Z,100304.70
2018-12-06T15:13:07.536Z,100302.56
2018-12-06T15:15:49.946Z,100303.42
2018-12-06T15:18:32.771Z,100302.84
2018-12-06T15:21:15.255Z,100289.98
2018-12-06T15:23:57.672Z,100295.92
2018-12-06T15:26:40.420Z,100300.08
2018-12-06T15:29:22.892Z,100303.56
2018-12-06T15:32:05.761Z,100311.09
2018-12-06T15:34:48.025Z,100325.84
2018-12-06T15:37:31.548Z,100329.41
2018-12-06T15:40:14.505Z,100331.39
2018-12-06T15:42:56.489Z,100330.28
2018-12-06T15:45:39.066Z,100336.80
2018-12-06T15:48:21.286Z,100333.74
2018-12-06T15:51:03.677Z,100338.77
2018-12-06T15:53:46.217Z,100337.94
2018-12-06T15:56:29.643Z,100329.89
2018-12-06T15:59:12.053Z,100333.83
2018-12-06T16:01:55.005Z,100325.21
2018-12-06T16:04:38.952Z,100321.64
2018-12-06T16:07:20.904Z,100326.93
2018-12-06T16:10:03.439Z,100333.64
2018-12-06T16:12:45.600Z,100324.09
2018-12-06T16:15:28.183Z,100321.71
2018-12-06T16:18:12.261Z,100327.14
2018-12-06T16:20:54.945Z,100318.91
2018-12-06T16:23:37.288Z,100318.95
2018-12-06T16:26:20.714Z,100312.10
2018-12-06T16:29:04.140Z,100314.50
2018-12-06T16:31:47.370Z,100311.61
2018-12-06T16:34:29.976Z,100305.38
2018-12-06T16:37:12.337Z,100319.47
2018-12-06T16:39:54.708Z,100322.69
2018-12-06T16:42:37.017Z,100330.78
2018-12-06T16:45:19.665Z,100331.70
2018-12-06T16:48:02.037Z,100338.41
2018-12-06T16:50:44.753Z,100330.28
2018-12-06T16:53:26.736Z,100329.73
2018-12-06T16:56:08.344Z,100329.59
2018-12-06T16:58:50.632Z,100312.05
2018-12-06T17:01:34.882Z,100305.49
2018-12-06T17:04:16.790Z,100313.01
2018-12-06T17:07:00.586Z,100321.98
2018-12-06T17:09:43.445Z,100338.33
2018-12-06T17:13:02.818Z,100327.05
2018-12-06T17:15:44.986Z,100330.47
2018-12-06T17:21:11.234Z,100328.52
2018-12-06T17:23:53.727Z,100330.16
2018-12-06T17:26:36.152Z,100327.59
2018-12-06T17:29:18.756Z,100318.66
2018-12-06T17:34:46.259Z,100322.05
2018-12-06T17:37:28.850Z,100305.63
2018-12-06T17:40:12.107Z,100302.25
2018-12-06T17:42:54.805Z,100313.89
2018-12-06T17:45:37.390Z,100315.33
2018-12-06T17:48:19.681Z,100312.55
2018-12-06T17:51:02.048Z,100311.41
2018-12-06T17:53:52.008Z,100307.58
2018-12-06T17:56:32.914Z,100297.84
2018-12-06T17:59:16.024Z,100303.23
2018-12-06T18:01:58.174Z,100296.04
2018-12-06T18:04:40.288Z,100294.78
2018-12-06T18:07:23.192Z,100290.55
2018-12-06T18:10:07.466Z,100289.38
2018-12-06T18:12:52.270Z,100275.69
2018-12-06T18:15:36.269Z,100268.98
2018-12-06T18:18:19.620Z,100268.78
2018-12-06T18:21:02.967Z,100265.65
2018-12-06T18:23:45.444Z,100269.44
2018-12-06T18:26:27.877Z,100266.10
2018-12-06T18:29:12.715Z,100272.59
2018-12-06T18:31:55.361Z,100268.96
2018-12-06T18:34:37.774Z,100272.89
2018-12-06T18:37:19.907Z,100284.54
2018-12-06T18:40:05.225Z,100290.74
2018-12-06T18:42:50.524Z,100295.69
2018-12-06T18:45:32.900Z,100290.98
2018-12-06T18:48:15.845Z,100293.26
2018-12-06T18:50:58.929Z,100288.01
2018-12-06T18:53:42.072Z,100284.98
2018-12-06T18:56:24.420Z,100287.63
2018-12-06T18:59:06.919Z,100289.93
2018-12-06T19:01:50.704Z,100298.45
2018-12-06T19:04:32.848Z,100294.64
2018-12-06T19:07:15.073Z,100283.26
2018-12-06T19:09:57.581Z,100281.83
2018-12-06T19:12:39.418Z,100279.96
2018-12-06T19:15:21.480Z,100283.18
2018-12-06T19:18:05.682Z,100269.75
2018-12-06T19:20:48.836Z,100263.97
2018-12-06T19:23:31.289Z,100254.63
2018-12-06T19:26:13.693Z,100264.73
2018-12-06T19:28:56.243Z,100272.72
2018-12-06T19:31:38.557Z,100264.09
2018-12-06T19:34:22.118Z,100261.44
2018-12-06T19:37:05.311Z,100260.95
2018-12-06T19:39:47.742Z,100260.88
2018-12-06T19:42:30.630Z,100248.59
2018-12-06T19:45:13.838Z,100243.86
2018-12-06T19:47:56.179Z,100252.09
2018-12-06T19:50:39.947Z,100248.66
2018-12-06T19:53:23.104Z,100243.06
2018-12-06T19:56:05.376Z,100241.92
2018-12-06T19:58:48.180Z,100238.97
2018-12-06T20:01:31.072Z,100238.77
2018-12-06T20:04:13.913Z,100240.74
2018-12-06T20:07:03.437Z,100244.04
2018-12-06T20:09:46.249Z,100242.06
2018-12-06T20:12:29.063Z,100241.68
2018-12-06T20:15:12.402Z,100247.73
2018-12-06T20:17:55.230Z,100244.06
2018-12-06T20:20:38.818Z,100251.92
2018-12-06T20:23:27.877Z,100247.94
2018-12-06T20:26:11.041Z,100252.73
2018-12-06T20:28:54.135Z,100256.41
2018-12-06T20:31:37.544Z,100241.39
2018-12-06T20:34:22.019Z,100245.98
2018-12-06T20:37:04.288Z,100239.87
2018-12-06T20:39:47.204Z,100235.50
2018-12-06T20:42:29.281Z,100227.78
2018-12-06T20:45:11.861Z,100237.97
2018-12-06T20:47:53.722Z,100246.99
2018-12-06T20:50:35.921Z,100238.90
2018-12-06T20:53:22.981Z,100223.94
2018-12-06T20:56:06.441Z,100217.50
2018-12-06T20:58:49.843Z,100218.02
2018-12-06T21:01:32.349Z,100205.38
2018-12-06T21:04:16.222Z,100216.83
2018-12-06T21:06:58.681Z,100218.89
2018-12-06T21:09:40.645Z,100213.20
2018-12-06T21:12:24.197Z,100201.55
2018-12-06T21:15:07.766Z,100192.63
2018-12-06T21:17:50.491Z,100193.06
2018-12-06T21:20:33.600Z,100190.83
2018-12-06T21:23:15.832Z,100196.09
2018-12-06T21:25:58.103Z,100190.81
2018-12-06T21:28:40.302Z,100194.53
2018-12-06T21:31:22.429Z,100192.38
2018-12-06T21:34:06.397Z,100193.14
2018-12-06T21:36:48.579Z,100198.02
2018-12-06T21:39:30.773Z,100186.78
2018-12-06T21:42:12.779Z,100188.58
2018-12-06T21:44:54.894Z,100193.14
2018-12-06T21:47:37.387Z,100184.23
2018-12-06T21:50:19.869Z,100183.83
2018-12-06T21:53:02.095Z,100190.39
2018-12-06T21:55:44.282Z,100194.31
2018-12-06T21:58:27.645Z,100189.61
2018-12-06T22:01:10.230Z,100190.40
2018-12-06T22:03:52.764Z,100195.20
2018-12-06T22:06:34.758Z,100199.34
2018-12-06T22:09:17.245Z,100198.06
2018-12-06T22:11:59.023Z,100182.78
2018-12-06T22:14:41.441Z,100181.74
2018-12-06T22:17:25.225Z,100184.02
2018-12-06T22:20:08.691Z,100188.91
2018-12-06T22:22:51.840Z,100190.55
2018-12-06T22:25:33.843Z,100181.70
2018-12-06T22:28:22.181Z,100188.25
2018-12-06T22:31:04.455Z,100178.48
2018-12-06T22:33:47.409Z,100176.64
2018-12-06T22:36:29.610Z,100188.19
2018-12-06T22:39:11.511Z,100176.70
2018-12-06T22:41:53.525Z,100179.42
2018-12-06T22:44:36.343Z,100180.33
2018-12-06T22:47:20.218Z,100177.27
2018-12-06T22:50:03.284Z,100181.72
2018-12-06T22:52:45.584Z,100173.88
2018-12-06T22:55:27.803Z,100163.72
2018-12-06T22:58:10.832Z,100165.02
2018-12-06T23:00:56.913Z,100171.80
2018-12-06T23:03:40.852Z,100167.08
2018-12-06T23:06:23.632Z,100163.73
2018-12-06T23:09:10.804Z,100163.86
2018-12-06T23:11:53.425Z,100159.59
2018-12-06T23:14:35.424Z,100149.23
2018-12-06T23:17:17.988Z,100154.34
2018-12-06T23:20:00.312Z,100143.25
2018-12-06T23:22:42.641Z,100138.92
2018-12-06T23:25:25.368Z,100129.86
2018-12-06T23:28:08.111Z,100115.37
2018-12-06T23:30:50.331Z,100106.28
2018-12-06T23:33:32.354Z,100097.52
2018-12-06T23:36:14.474Z,100096.55
2018-12-06T23:38:56.877Z,100095.95
2018-12-06T23:41:38.867Z,100088.67
2018-12-06T23:44:21.098Z,100093.75
2018-12-06T23:47:03.389Z,100089.06
2018-12-06T23:49:45.368Z,100084.39
2018-12-06T23:52:27.210Z,100083.81
2018-12-06T23:55:09.854Z,100084.23
2018-12-06T23:57:51.992Z,100074.80
